createdAt,value
2017-03-27T00:00:03.378Z,1014.05
2017-03-27T00:15:02.980Z,1013.92
2017-03-27T00:30:03.122Z,1014.12
2017-03-27T00:45:02.884Z,1013.89
2017-03-27T01:00:03.100Z,1013.97
2017-03-27T01:15:03.232Z,1013.88
2017-03-27T01:30:03.264Z,1013.86
2017-03-27T01:45:02.781Z,1013.91
2017-03-27T02:00:03.599Z,1013.89
2017-03-27T02:15:02.967Z,1013.9
2017-03-27T02:30:03.014Z,1013.73
2017-03-27T02:45:03.467Z,1013.77
2017-03-27T03:00:03.286Z,1013.79
2017-03-27T03:15:03.102Z,1013.72
2017-03-27T03:30:03.086Z,1013.79
2017-03-27T03:45:02.982Z,1013.67
2017-03-27T04:00:02.944Z,1013.63
2017-03-27T04:15:03.076Z,1013.77
2017-03-27T04:30:02.947Z,1013.8
2017-03-27T04:45:03.294Z,1013.84
2017-03-27T05:00:03.921Z,1014
2017-03-27T05:15:02.582Z,1014.05
2017-03-27T05:30:03.403Z,1014.21
2017-03-27T05:45:03.350Z,1014.18
2017-03-27T06:00:02.948Z,1014.24
2017-03-27T06:15:03.207Z,1014.2
2017-03-27T06:30:03.174Z,1014.21
2017-03-27T06:45:02.897Z,1014.19
2017-03-27T07:00:02.579Z,1014.29
2017-03-27T07:15:03.328Z,1014.24
2017-03-27T07:30:02.531Z,1014.15
2017-03-27T07:45:03.135Z,1014.15
2017-03-27T08:00:02.826Z,1014.11
2017-03-27T08:15:02.830Z,1014.01
2017-03-27T08:30:02.789Z,1014.11
2017-03-27T08:45:03.189Z,1014.1
2017-03-27T09:00:02.894Z,1014.04
2017-03-27T09:15:03.052Z,1013.95
2017-03-27T09:30:03.307Z,1013.59
2017-03-27T09:45:02.909Z,1013.57
2017-03-27T10:00:03.454Z,1013.47
2017-03-27T10:15:02.899Z,1013.33
2017-03-27T10:30:02.773Z,1013.41
2017-03-27T10:45:03.395Z,1013.33
2017-03-27T11:00:03.070Z,1013.21
2017-03-27T11:15:02.556Z,1013.18
2017-03-27T11:30:02.563Z,1013.14
2017-03-27T11:45:03.300Z,1013.08
2017-03-27T12:00:02.967Z,1012.88
2017-03-27T12:15:02.982Z,1012.85
2017-03-27T12:30:02.857Z,1012.6
2017-03-27T12:45:03.518Z,1012.45
2017-03-27T13:00:03.121Z,1012.31
2017-03-27T13:15:03.225Z,1012.02
2017-03-27T13:30:03.326Z,1011.97
2017-03-27T13:45:02.935Z,1011.94
2017-03-27T14:00:02.555Z,1011.84
2017-03-27T14:15:03.223Z,1011.57
2017-03-27T14:30:02.605Z,1011.37
2017-03-27T14:45:02.615Z,1011.29
2017-03-27T15:00:03.209Z,1011.09
2017-03-27T15:15:02.791Z,1011.15
2017-03-27T15:30:02.600Z,1010.89
2017-03-27T15:45:03.193Z,1010.85
2017-03-27T16:00:02.847Z,1010.76
2017-03-27T16:15:03.286Z,1010.79
2017-03-27T16:30:03.280Z,1010.71
2017-03-27T16:45:03.285Z,1010.7
2017-03-27T17:00:03.213Z,1010.68
2017-03-27T17:15:03.303Z,1010.66
2017-03-27T17:30:03.412Z,1010.64
2017-03-27T17:45:03.281Z,1010.7
2017-03-27T18:00:03.363Z,1010.61
2017-03-27T19:00:11.433Z,1010.56
2017-03-27T19:30:05.496Z,1010.53
2017-03-27T19:45:03.355Z,1010.54
2017-03-27T20:00:03.496Z,1010.53
2017-03-27T20:15:03.510Z,1010.58
2017-03-27T20:30:03.391Z,1010.54
2017-03-27T20:45:03.056Z,1010.66
2017-03-27T21:00:02.724Z,1010.52
2017-03-27T21:15:03.528Z,1010.44
2017-03-27T21:30:03.534Z,1010.42
2017-03-27T21:45:03.333Z,1010.6
2017-03-27T22:00:03.235Z,1010.53
2017-03-27T22:15:03.609Z,1010.53
2017-03-27T22:30:02.926Z,1010.46
2017-03-27T22:45:02.965Z,1010.33
2017-03-27T23:00:02.555Z,1010.37
2017-03-27T23:15:02.796Z,1010.24
2017-03-27T23:30:02.836Z,1010.24
2017-03-27T23:45:03.532Z,1010.13
